Time;durP1;ratioP1;P1;durP2;ratioP2;P2;SDS_P1;SDS_P2;PMS_P1;PMS_P2;Temp;Humidity;BMP_temperature;BMP_pressure;BME280_temperature;BME280_humidity;BME280_pressure;Samples;Min_cycle;Max_cycle;Signal;HPM_P1;HPM_P2
2021/08/29 00:02:27;;;;;;;2.55;1.60;;;17.90;99.90;;;;;;5044043;28;20546;-78
2021/08/29 00:04:54;;;;;;;1.40;1.20;;;17.90;99.90;;;;;;5039353;28;20195;-78
2021/08/29 00:07:20;;;;;;;1.55;1.45;;;17.90;99.90;;;;;;5051953;28;20192;-77
2021/08/29 00:09:47;;;;;;;1.70;1.50;;;17.90;99.90;;;;;;5039463;28;20200;-77
2021/08/29 00:12:14;;;;;;;1.38;1.27;;;17.90;99.90;;;;;;5033202;28;20665;-78
2021/08/29 00:14:40;;;;;;;1.88;1.40;;;18.10;99.90;;;;;;5044144;28;20204;-76
2021/08/29 00:17:07;;;;;;;2.35;1.63;;;17.90;99.90;;;;;;5049010;28;20292;-76
2021/08/29 00:19:35;;;;;;;2.92;1.42;;;17.90;99.90;;;;;;5043959;28;20215;-76
2021/08/29 00:22:02;;;;;;;1.80;1.55;;;17.90;99.90;;;;;;5047073;28;20257;-76
2021/08/29 00:24:29;;;;;;;4.63;1.40;;;17.90;99.90;;;;;;5046324;28;20254;-76
2021/08/29 00:26:55;;;;;;;5.30;1.83;;;17.80;99.90;;;;;;5047867;28;20615;-78
2021/08/29 00:29:22;;;;;;;1.67;1.23;;;17.80;99.90;;;;;;5046550;28;20607;-76
2021/08/29 00:31:49;;;;;;;3.13;1.50;;;17.90;99.90;;;;;;5043239;28;20227;-77
2021/08/29 00:34:15;;;;;;;3.10;1.83;;;17.90;99.90;;;;;;5047259;28;20214;-77
2021/08/29 00:36:43;;;;;;;3.08;1.65;;;17.80;99.90;;;;;;5051879;28;20219;-77
2021/08/29 00:39:10;;;;;;;2.45;1.50;;;17.90;99.90;;;;;;5043123;28;20189;-77
2021/08/29 00:41:37;;;;;;;1.65;1.50;;;17.80;99.90;;;;;;5047807;28;20257;-77
2021/08/29 00:44:04;;;;;;;1.70;1.60;;;17.80;99.90;;;;;;5050423;28;20283;-77
2021/08/29 00:46:32;;;;;;;1.98;1.50;;;17.80;99.90;;;;;;5048472;28;20249;-77
2021/08/29 00:48:59;;;;;;;1.75;1.65;;;17.80;99.90;;;;;;5047853;28;20609;-76
2021/08/29 00:51:26;;;;;;;2.25;2.00;;;17.80;99.90;;;;;;5045081;28;20652;-76
2021/08/29 00:53:55;;;;;;;1.35;1.15;;;17.70;99.90;;;;;;5045074;28;20815;-77
2021/08/29 00:56:22;;;;;;;1.95;1.75;;;17.80;99.90;;;;;;5044538;28;20292;-77
2021/08/29 00:58:50;;;;;;;1.92;1.50;;;17.80;99.90;;;;;;5045427;28;20200;-77
2021/08/29 01:01:19;;;;;;;1.55;1.45;;;17.70;99.90;;;;;;5044248;28;20653;-77
2021/08/29 01:03:47;;;;;;;2.83;2.00;;;17.80;99.90;;;;;;5047472;28;20191;-77
2021/08/29 01:06:18;;;;;;;1.70;1.60;;;17.70;99.90;;;;;;5050491;28;20187;-77
2021/08/29 01:08:48;;;;;;;2.50;1.52;;;17.70;99.90;;;;;;5054232;28;20199;-78
2021/08/29 01:11:19;;;;;;;3.85;1.63;;;17.70;99.90;;;;;;5050960;28;20402;-77
2021/08/29 01:13:48;;;;;;;3.55;1.67;;;17.70;99.90;;;;;;5044091;28;20237;-78
2021/08/29 01:16:17;;;;;;;1.80;1.65;;;17.70;99.90;;;;;;5045988;28;20219;-77
2021/08/29 01:18:46;;;;;;;2.53;1.55;;;17.60;99.90;;;;;;5046810;28;20272;-77
2021/08/29 01:21:16;;;;;;;1.70;1.55;;;17.80;99.90;;;;;;5044710;28;20245;-76
2021/08/29 01:23:48;;;;;;;2.08;1.85;;;17.70;99.90;;;;;;5048898;28;20200;-76
2021/08/29 01:26:21;;;;;;;2.58;1.90;;;17.70;99.90;;;;;;5045435;28;20192;-76
2021/08/29 01:28:54;;;;;;;2.15;1.70;;;17.70;99.90;;;;;;5046221;28;20199;-76
2021/08/29 01:31:23;;;;;;;1.90;1.48;;;17.70;99.90;;;;;;5044005;28;20550;-76
2021/08/29 01:33:51;;;;;;;2.10;1.63;;;17.70;99.90;;;;;;5046144;28;20196;-75
2021/08/29 01:36:19;;;;;;;2.30;1.95;;;17.70;99.90;;;;;;5050024;28;20615;-75
2021/08/29 01:38:47;;;;;;;2.70;1.67;;;17.70;99.90;;;;;;5048025;28;20202;-75
2021/08/29 01:41:17;;;;;;;1.85;1.52;;;17.70;99.90;;;;;;5048956;28;20282;-76
2021/08/29 01:43:44;;;;;;;1.95;1.75;;;17.60;99.90;;;;;;5046964;28;20607;-75
2021/08/29 01:46:12;;;;;;;2.45;1.40;;;17.60;99.90;;;;;;5044466;28;20243;-76
2021/08/29 01:48:40;;;;;;;1.85;1.50;;;17.90;99.90;;;;;;5046556;28;20608;-76
2021/08/29 01:51:08;;;;;;;3.45;1.50;;;17.70;99.90;;;;;;5049797;28;20706;-76
2021/08/29 01:53:35;;;;;;;2.30;1.77;;;17.60;99.90;;;;;;5041937;28;20200;-76
2021/08/29 01:56:03;;;;;;;2.25;2.05;;;17.60;99.90;;;;;;5048360;28;20660;-76
2021/08/29 01:58:29;;;;;;;2.47;2.28;;;17.70;99.90;;;;;;5051451;28;20231;-76
2021/08/29 02:00:59;;;;;;;2.00;1.60;;;17.70;99.90;;;;;;5049324;28;20195;-76
2021/08/29 02:03:28;;;;;;;2.20;2.00;;;17.30;99.90;;;;;;5047125;28;20200;-77
2021/08/29 02:05:59;;;;;;;3.00;1.95;;;17.60;99.90;;;;;;5052964;28;20632;-78
2021/08/29 02:08:27;;;;;;;2.20;1.60;;;17.20;99.90;;;;;;5052000;28;20203;-78
2021/08/29 02:10:59;;;;;;;3.88;1.80;;;17.60;99.90;;;;;;5049744;28;20198;-77
2021/08/29 02:13:29;;;;;;;2.35;1.73;;;17.60;99.90;;;;;;5054749;28;20652;-77
2021/08/29 02:16:00;;;;;;;2.35;2.15;;;17.60;99.90;;;;;;5051360;28;20196;-76
2021/08/29 02:18:30;;;;;;;2.25;1.33;;;17.60;99.90;;;;;;5048302;28;20215;-77
2021/08/29 02:20:57;;;;;;;1.85;1.65;;;17.60;99.90;;;;;;5054059;28;20223;-77
2021/08/29 02:23:26;;;;;;;2.05;1.65;;;17.60;99.90;;;;;;5053030;28;20669;-77
2021/08/29 02:25:53;;;;;;;1.50;1.40;;;17.60;99.90;;;;;;5046514;28;20239;-78
2021/08/29 02:28:21;;;;;;;1.95;1.45;;;17.60;99.90;;;;;;5049759;28;20195;-78
2021/08/29 02:30:48;;;;;;;2.33;1.60;;;17.60;99.90;;;;;;5051834;28;20253;-77
2021/08/29 02:33:15;;;;;;;3.13;1.65;;;17.60;99.90;;;;;;5045091;28;20195;-75
2021/08/29 02:35:45;;;;;;;3.25;2.20;;;17.60;99.90;;;;;;5051959;28;20245;-75
2021/08/29 02:38:12;;;;;;;1.80;1.52;;;17.60;99.90;;;;;;5052908;28;20627;-76
2021/08/29 02:40:42;;;;;;;2.05;1.50;;;17.60;99.90;;;;;;5050258;28;20187;-76
2021/08/29 02:43:10;;;;;;;2.55;1.50;;;17.60;99.90;;;;;;5049426;28;20223;-76
2021/08/29 02:45:38;;;;;;;3.40;2.05;;;17.50;99.90;;;;;;5050825;28;20199;-76
2021/08/29 02:48:06;;;;;;;3.22;2.05;;;17.60;99.90;;;;;;5050466;28;20664;-76
2021/08/29 02:50:34;;;;;;;1.90;1.55;;;17.60;99.90;;;;;;5049856;28;20195;-76
2021/08/29 02:53:02;;;;;;;1.63;1.50;;;17.80;99.90;;;;;;5050533;28;20246;-77
2021/08/29 02:55:31;;;;;;;2.30;1.80;;;17.60;99.90;;;;;;5043137;28;20656;-77
2021/08/29 02:58:06;;;;;;;2.47;2.20;;;17.50;99.90;;;;;;5047113;28;20268;-77
2021/08/29 03:00:33;;;;;;;2.13;1.85;;;17.50;99.90;;;;;;5050307;28;20195;-77
2021/08/29 03:03:00;;;;;;;3.30;1.90;;;17.50;99.90;;;;;;5048367;28;20196;-77
2021/08/29 03:05:27;;;;;;;2.58;2.38;;;17.50;99.90;;;;;;5052279;28;20191;-78
2021/08/29 03:07:54;;;;;;;2.72;1.70;;;17.50;99.90;;;;;;5053967;28;20199;-77
2021/08/29 03:10:23;;;;;;;2.00;1.45;;;17.50;99.90;;;;;;5044112;28;20599;-77
2021/08/29 03:12:51;;;;;;;3.45;2.40;;;17.50;99.90;;;;;;5050734;28;20211;-77
2021/08/29 03:15:17;;;;;;;2.58;2.38;;;17.50;99.90;;;;;;5037027;28;20193;-77
2021/08/29 03:17:44;;;;;;;2.22;1.95;;;17.50;99.90;;;;;;5045410;28;20238;-77
2021/08/29 03:20:12;;;;;;;2.72;2.30;;;17.50;99.90;;;;;;5047957;28;20302;-77
2021/08/29 03:22:40;;;;;;;3.45;1.70;;;17.50;99.90;;;;;;5045115;28;20627;-77
2021/08/29 03:25:08;;;;;;;2.80;1.92;;;17.50;99.90;;;;;;5048614;28;20198;-77
2021/08/29 03:27:36;;;;;;;1.90;1.70;;;17.50;99.90;;;;;;5043455;28;20656;-77
2021/08/29 03:30:04;;;;;;;2.92;2.08;;;17.50;99.90;;;;;;5048327;28;20196;-77
2021/08/29 03:32:30;;;;;;;5.97;2.08;;;17.50;99.90;;;;;;5049035;28;20649;-76
2021/08/29 03:35:01;;;;;;;5.32;2.03;;;17.60;99.90;;;;;;5052037;28;20195;-77
2021/08/29 03:37:28;;;;;;;3.08;1.70;;;17.50;99.90;;;;;;5052043;28;20230;-77
2021/08/29 03:39:57;;;;;;;4.80;1.92;;;17.50;99.90;;;;;;5043718;28;20195;-77
2021/08/29 03:42:24;;;;;;;2.67;1.80;;;17.50;99.90;;;;;;5047567;28;20230;-77
2021/08/29 03:44:53;;;;;;;1.90;1.70;;;17.50;99.90;;;;;;5049621;28;20287;-77
2021/08/29 03:47:20;;;;;;;2.00;1.45;;;17.50;99.90;;;;;;5047139;28;20660;-77
2021/08/29 03:49:48;;;;;;;2.08;1.50;;;17.50;99.90;;;;;;5049977;28;20254;-78
2021/08/29 03:52:18;;;;;;;2.08;1.90;;;17.50;99.90;;;;;;5053819;28;20203;-78
2021/08/29 03:54:46;;;;;;;3.35;1.80;;;17.50;99.90;;;;;;5050550;28;20218;-78
2021/08/29 03:57:13;;;;;;;2.60;1.80;;;17.50;99.90;;;;;;5052811;28;20684;-78
2021/08/29 03:59:41;;;;;;;2.63;1.92;;;17.50;99.90;;;;;;5048381;28;20687;-78
2021/08/29 04:02:10;;;;;;;1.98;1.63;;;17.50;99.90;;;;;;5051736;28;20194;-78
2021/08/29 04:04:37;;;;;;;3.05;1.80;;;17.50;99.90;;;;;;5048315;28;20199;-78
2021/08/29 04:07:05;;;;;;;3.80;2.60;;;17.50;99.90;;;;;;5052231;28;20706;-77
2021/08/29 04:09:34;;;;;;;2.35;1.75;;;17.50;99.90;;;;;;5041781;28;20455;-77
2021/08/29 04:12:02;;;;;;;8.02;3.50;;;17.50;99.90;;;;;;5050284;28;20188;-77
2021/08/29 04:14:30;;;;;;;3.85;2.00;;;17.50;99.90;;;;;;5047778;28;20253;-78
2021/08/29 04:16:58;;;;;;;2.08;1.85;;;17.50;99.90;;;;;;5044408;28;20671;-77
2021/08/29 04:19:27;;;;;;;4.07;1.70;;;17.40;99.90;;;;;;5050198;28;20257;-77
2021/08/29 04:21:55;;;;;;;2.30;2.10;;;17.40;99.90;;;;;;5051270;28;20223;-76
2021/08/29 04:24:23;;;;;;;3.33;1.90;;;17.40;99.90;;;;;;5049039;28;20196;-77
2021/08/29 04:26:50;;;;;;;2.53;2.10;;;17.40;99.90;;;;;;5045663;28;20188;-77
2021/08/29 04:29:17;;;;;;;2.00;1.75;;;17.40;99.90;;;;;;5042112;28;20210;-77
2021/08/29 04:31:48;;;;;;;2.90;2.60;;;17.40;99.90;;;;;;5039389;28;20201;-76
2021/08/29 04:34:15;;;;;;;3.45;2.60;;;17.40;99.90;;;;;;5047221;28;20269;-77
2021/08/29 04:36:43;;;;;;;2.72;1.75;;;17.40;99.90;;;;;;5044048;28;20282;-76
2021/08/29 04:39:10;;;;;;;3.65;2.20;;;17.40;99.90;;;;;;5049484;28;20224;-76
2021/08/29 04:41:38;;;;;;;2.72;1.92;;;17.40;99.90;;;;;;5051366;28;20195;-76
2021/08/29 04:44:06;;;;;;;5.28;2.15;;;17.40;99.90;;;;;;5046867;28;20253;-77
2021/08/29 04:46:33;;;;;;;2.22;2.03;;;17.40;99.90;;;;;;5047225;28;20213;-77
2021/08/29 04:48:59;;;;;;;3.15;2.38;;;17.70;99.90;;;;;;5050007;28;20196;-77
2021/08/29 04:51:26;;;;;;;2.90;2.15;;;17.40;99.90;;;;;;5048559;28;20207;-77
2021/08/29 04:53:54;;;;;;;3.65;2.22;;;17.20;99.90;;;;;;5049456;28;20615;-77
2021/08/29 04:56:21;;;;;;;2.88;2.08;;;17.40;99.90;;;;;;5050830;28;20199;-76
2021/08/29 04:58:47;;;;;;;3.55;2.20;;;17.40;99.90;;;;;;5048682;28;20222;-77
2021/08/29 05:01:14;;;;;;;2.75;2.00;;;17.40;99.90;;;;;;5047602;28;20249;-76
2021/08/29 05:03:41;;;;;;;2.45;2.25;;;17.40;99.90;;;;;;5045882;28;20627;-76
2021/08/29 05:06:07;;;;;;;3.20;2.25;;;17.40;99.90;;;;;;5049236;28;20187;-76
2021/08/29 05:08:34;;;;;;;2.63;1.98;;;17.40;99.90;;;;;;5049790;28;20719;-76
2021/08/29 05:11:02;;;;;;;4.93;3.25;;;17.40;99.90;;;;;;5050121;28;20235;-76
2021/08/29 05:13:29;;;;;;;3.50;2.55;;;17.40;99.90;;;;;;5049740;28;20199;-75
2021/08/29 05:15:56;;;;;;;3.38;2.25;;;17.40;99.90;;;;;;5044261;28;20221;-76
2021/08/29 05:18:23;;;;;;;3.70;2.53;;;17.40;99.90;;;;;;5044088;28;20322;-76
2021/08/29 05:20:50;;;;;;;2.60;2.20;;;17.40;99.90;;;;;;5049678;28;20282;-77
2021/08/29 05:23:16;;;;;;;2.85;2.35;;;17.40;99.90;;;;;;5047528;28;20241;-76
2021/08/29 05:25:43;;;;;;;3.38;2.47;;;17.50;99.90;;;;;;5043985;28;20203;-77
2021/08/29 05:28:11;;;;;;;3.83;2.25;;;17.40;99.90;;;;;;5050581;28;20675;-77
2021/08/29 05:30:38;;;;;;;2.63;2.17;;;17.30;99.90;;;;;;5046648;28;20207;-78
2021/08/29 05:33:04;;;;;;;3.13;2.58;;;17.50;99.90;;;;;;5047228;28;20253;-77
2021/08/29 05:35:31;;;;;;;2.10;1.90;;;17.40;99.90;;;;;;5049018;28;20203;-77
2021/08/29 05:37:58;;;;;;;4.20;2.70;;;17.40;99.90;;;;;;5051278;28;20208;-77
2021/08/29 05:40:24;;;;;;;2.58;1.80;;;17.40;99.90;;;;;;5039709;28;20199;-77
2021/08/29 05:42:51;;;;;;;4.70;2.70;;;17.40;99.90;;;;;;5048934;28;20614;-77
2021/08/29 05:45:19;;;;;;;3.35;2.17;;;17.40;99.90;;;;;;5046578;28;20200;-77
2021/08/29 05:47:46;;;;;;;5.85;1.95;;;17.40;99.90;;;;;;5049017;28;20227;-77
2021/08/29 05:50:13;;;;;;;2.28;2.03;;;17.40;99.90;;;;;;5050241;28;20656;-77
2021/08/29 05:52:40;;;;;;;2.35;1.85;;;17.40;99.90;;;;;;5051381;28;20195;-77
2021/08/29 05:55:08;;;;;;;4.57;2.65;;;17.40;99.90;;;;;;5047013;28;20241;-77
2021/08/29 05:57:34;;;;;;;3.05;2.00;;;17.40;99.90;;;;;;5048352;28;20208;-77
2021/08/29 06:00:01;;;;;;;3.70;2.42;;;17.40;99.90;;;;;;5048123;28;20194;-78
2021/08/29 06:02:29;;;;;;;5.97;2.42;;;17.40;99.90;;;;;;5047962;28;20253;-78
2021/08/29 06:04:56;;;;;;;1.92;1.65;;;17.40;99.90;;;;;;5042139;28;20192;-78
2021/08/29 06:07:23;;;;;;;2.75;2.22;;;17.30;99.90;;;;;;5049078;28;20207;-78
2021/08/29 06:09:50;;;;;;;2.30;2.10;;;17.40;99.90;;;;;;5049153;28;20196;-78
2021/08/29 06:12:16;;;;;;;3.85;2.40;;;17.40;99.90;;;;;;5050230;28;20191;-78
2021/08/29 06:14:43;;;;;;;4.28;2.60;;;17.30;99.90;;;;;;5046783;28;20253;-77
2021/08/29 06:17:10;;;;;;;3.65;2.20;;;17.40;99.90;;;;;;5046740;28;20640;-78
2021/08/29 06:19:38;;;;;;;4.07;2.47;;;17.40;99.90;;;;;;5042913;28;20281;-78
2021/08/29 06:22:05;;;;;;;2.97;2.33;;;17.40;99.90;;;;;;5041318;28;20200;-79
2021/08/29 06:24:31;;;;;;;3.03;2.38;;;17.40;99.90;;;;;;5044378;28;20250;-78
2021/08/29 06:26:58;;;;;;;4.35;2.55;;;17.40;99.90;;;;;;5048154;28;20195;-78
2021/08/29 06:29:25;;;;;;;8.18;2.35;;;17.40;99.90;;;;;;5049081;28;20211;-78
2021/08/29 06:31:51;;;;;;;3.28;2.25;;;17.40;99.90;;;;;;5048443;28;20246;-78
2021/08/29 06:34:18;;;;;;;5.75;2.50;;;17.40;99.90;;;;;;5042434;28;20195;-78
2021/08/29 06:36:47;;;;;;;3.92;2.40;;;17.40;99.90;;;;;;5049774;28;20556;-77
2021/08/29 06:39:14;;;;;;;3.78;2.25;;;17.40;99.90;;;;;;5048249;28;20226;-77
2021/08/29 06:41:41;;;;;;;3.50;2.25;;;17.40;99.90;;;;;;5047521;28;20257;-78
2021/08/29 06:44:08;;;;;;;3.25;2.50;;;17.30;99.90;;;;;;5053080;28;20195;-77
2021/08/29 06:46:34;;;;;;;4.05;2.78;;;17.30;99.90;;;;;;5053580;28;20199;-77
2021/08/29 06:49:01;;;;;;;6.03;3.00;;;17.30;99.90;;;;;;5047199;28;20652;-77
2021/08/29 06:51:28;;;;;;;2.63;2.17;;;17.30;99.90;;;;;;5048579;28;20660;-77
2021/08/29 06:53:56;;;;;;;2.97;2.65;;;17.30;99.90;;;;;;5043618;28;20660;-77
2021/08/29 06:56:22;;;;;;;5.82;2.30;;;17.30;99.90;;;;;;5051531;28;20257;-78
2021/08/29 06:58:49;;;;;;;2.55;2.35;;;17.40;99.90;;;;;;5053412;28;20413;-78
2021/08/29 07:01:16;;;;;;;4.18;2.58;;;17.40;99.90;;;;;;5052080;28;20253;-78
2021/08/29 07:03:42;;;;;;;4.18;2.10;;;17.40;99.90;;;;;;5044481;28;20191;-77
2021/08/29 07:06:09;;;;;;;5.63;3.00;;;17.40;99.90;;;;;;5051876;28;20314;-76
2021/08/29 07:08:36;;;;;;;3.13;2.63;;;17.40;99.90;;;;;;5039956;28;20226;-77
2021/08/29 07:11:04;;;;;;;2.85;2.35;;;17.30;99.90;;;;;;5041938;28;20204;-78
2021/08/29 07:13:31;;;;;;;4.47;2.22;;;17.30;99.90;;;;;;5045222;28;20200;-77
2021/08/29 07:15:58;;;;;;;3.83;2.35;;;17.40;99.90;;;;;;5051988;28;20188;-77
2021/08/29 07:18:25;;;;;;;3.15;2.40;;;17.40;99.90;;;;;;5050867;28;20215;-78
2021/08/29 07:20:52;;;;;;;2.78;2.15;;;17.40;99.90;;;;;;5053406;28;20215;-77
2021/08/29 07:23:19;;;;;;;3.10;2.80;;;17.40;99.90;;;;;;5052816;28;20605;-77
2021/08/29 07:25:45;;;;;;;3.25;2.47;;;16.80;99.90;;;;;;5034156;28;20200;-77
2021/08/29 07:28:14;;;;;;;4.80;2.97;;;17.60;99.90;;;;;;5050817;28;20196;-77
2021/08/29 07:30:40;;;;;;;4.80;2.50;;;17.30;99.90;;;;;;5051981;28;20212;-77
2021/08/29 07:33:07;;;;;;;3.15;2.55;;;17.40;99.90;;;;;;5052500;28;20274;-77
2021/08/29 07:35:34;;;;;;;5.45;3.35;;;17.40;99.90;;;;;;5053989;28;20567;-78
2021/08/29 07:38:00;;;;;;;3.85;2.92;;;17.30;99.90;;;;;;5056399;28;20195;-78
2021/08/29 07:40:27;;;;;;;3.05;2.70;;;17.60;99.90;;;;;;5051975;28;20199;-77
2021/08/29 07:42:54;;;;;;;3.70;2.83;;;17.40;99.90;;;;;;5054619;28;20195;-77
2021/08/29 07:45:22;;;;;;;3.25;2.95;;;17.40;99.90;;;;;;5052546;28;20550;-76
2021/08/29 07:47:52;;;;;;;3.28;2.85;;;17.40;99.90;;;;;;5051072;28;20560;-77
2021/08/29 07:50:19;;;;;;;5.55;2.47;;;17.40;99.90;;;;;;5052265;28;20199;-76
2021/08/29 07:52:46;;;;;;;8.65;2.83;;;17.40;99.90;;;;;;5050904;28;20200;-77
2021/08/29 07:55:12;;;;;;;2.97;2.15;;;17.40;99.90;;;;;;5048605;28;20200;-77
2021/08/29 07:57:39;;;;;;;3.80;2.28;;;17.40;99.90;;;;;;5050909;28;20245;-77
2021/08/29 08:00:07;;;;;;;3.60;2.28;;;17.40;99.90;;;;;;5049495;28;20281;-77
2021/08/29 08:02:35;;;;;;;2.45;2.25;;;17.40;99.90;;;;;;5049679;28;20200;-77
2021/08/29 08:05:02;;;;;;;2.30;2.10;;;17.40;99.90;;;;;;5051729;28;20199;-77
2021/08/29 08:07:29;;;;;;;2.67;2.00;;;17.60;99.90;;;;;;5053892;28;20192;-76
2021/08/29 08:09:55;;;;;;;4.05;2.88;;;17.40;99.90;;;;;;5045044;28;20302;-78
2021/08/29 08:12:22;;;;;;;3.17;2.40;;;17.40;99.90;;;;;;5053068;28;20204;-77
2021/08/29 08:14:49;;;;;;;2.85;2.55;;;17.40;99.90;;;;;;5050225;28;20196;-77
2021/08/29 08:17:15;;;;;;;3.00;1.90;;;17.40;99.90;;;;;;5039830;28;20208;-82
2021/08/29 08:19:43;;;;;;;3.95;2.15;;;17.40;99.90;;;;;;5052406;28;20293;-78
2021/08/29 08:22:10;;;;;;;2.10;1.90;;;17.50;99.90;;;;;;5051235;28;20545;-78
2021/08/29 08:24:37;;;;;;;2.50;2.05;;;17.50;99.90;;;;;;5048524;28;20245;-78
2021/08/29 08:27:05;;;;;;;3.60;2.60;;;17.50;99.90;;;;;;5047395;28;20199;-77
2021/08/29 08:29:31;;;;;;;2.30;2.10;;;17.50;99.90;;;;;;5046089;28;20885;-77
2021/08/29 08:31:58;;;;;;;2.35;2.08;;;17.30;99.90;;;;;;5053831;28;20210;-77
2021/08/29 08:34:25;;;;;;;3.05;2.60;;;17.50;99.90;;;;;;5045105;28;20248;-77
2021/08/29 08:36:53;;;;;;;2.13;1.92;;;17.40;99.90;;;;;;5039246;28;20670;-78
2021/08/29 08:39:19;;;;;;;2.42;2.03;;;17.50;99.90;;;;;;5043035;28;20215;-77
2021/08/29 08:41:46;;;;;;;2.40;2.00;;;17.50;99.90;;;;;;5048900;28;20192;-76
2021/08/29 08:44:13;;;;;;;3.55;2.03;;;17.50;99.90;;;;;;5050426;28;20219;-77
2021/08/29 08:46:39;;;;;;;3.00;2.25;;;17.50;99.90;;;;;;5052553;28;20196;-77
2021/08/29 08:49:06;;;;;;;2.00;1.77;;;17.50;99.90;;;;;;5050791;28;20277;-78
2021/08/29 08:51:38;;;;;;;5.38;1.98;;;17.50;99.90;;;;;;5049733;28;20203;-77
2021/08/29 08:54:08;;;;;;;1.90;1.70;;;17.60;99.90;;;;;;5044951;28;20188;-77
2021/08/29 08:56:37;;;;;;;2.10;1.85;;;17.50;99.90;;;;;;5033947;28;20204;-77
2021/08/29 08:59:05;;;;;;;2.13;1.88;;;17.50;99.90;;;;;;5050636;28;20211;-78
2021/08/29 09:01:32;;;;;;;2.20;2.00;;;17.50;99.90;;;;;;5050141;28;20603;-78
2021/08/29 09:03:59;;;;;;;2.00;1.80;;;17.50;99.90;;;;;;5050559;28;20203;-78
2021/08/29 09:06:26;;;;;;;2.55;1.60;;;17.50;99.90;;;;;;5051520;28;20245;-77
2021/08/29 09:08:53;;;;;;;1.65;1.55;;;17.50;99.90;;;;;;5046061;28;20192;-77
2021/08/29 09:11:22;;;;;;;2.85;1.90;;;17.50;99.90;;;;;;5035628;28;20241;-77
2021/08/29 09:13:56;;;;;;;1.88;1.40;;;17.50;99.90;;;;;;5050653;28;20253;-77
2021/08/29 09:16:26;;;;;;;1.35;1.10;;;17.40;99.90;;;;;;5051827;28;20203;-78
2021/08/29 09:18:55;;;;;;;2.25;1.50;;;17.40;99.90;;;;;;5044401;28;20264;-78
2021/08/29 09:21:24;;;;;;;1.55;1.08;;;17.50;99.90;;;;;;5051815;28;20727;-78
2021/08/29 09:23:51;;;;;;;1.73;1.50;;;17.50;99.90;;;;;;5049086;28;20196;-78
2021/08/29 09:26:19;;;;;;;1.50;1.30;;;17.50;99.90;;;;;;5050519;28;20195;-78
2021/08/29 09:28:49;;;;;;;1.65;1.50;;;17.50;99.90;;;;;;5050473;28;20233;-78
2021/08/29 09:31:17;;;;;;;2.05;1.35;;;17.60;99.90;;;;;;5051609;28;20607;-77
2021/08/29 09:33:57;;;;;;;2.22;1.65;;;17.50;99.90;;;;;;5050070;28;20199;-78
2021/08/29 09:36:29;;;;;;;1.75;1.45;;;17.50;99.90;;;;;;5050076;28;20198;-77
2021/08/29 09:39:10;;;;;;;2.65;1.30;;;17.50;99.90;;;;;;5047935;28;20654;-77
2021/08/29 09:41:37;;;;;;;1.67;1.27;;;17.50;99.90;;;;;;5051224;28;20755;-77
2021/08/29 09:44:11;;;;;;;1.63;1.30;;;17.50;99.90;;;;;;5048858;28;20191;-78
2021/08/29 09:46:51;;;;;;;1.95;1.45;;;17.50;99.90;;;;;;5047757;28;20287;-77
2021/08/29 09:49:26;;;;;;;1.70;1.25;;;17.50;99.90;;;;;;5042039;28;20222;-77
2021/08/29 09:51:54;;;;;;;1.50;1.30;;;17.50;99.90;;;;;;5050306;28;20655;-78
2021/08/29 09:54:29;;;;;;;1.33;1.20;;;17.50;99.90;;;;;;5045320;28;20599;-77
2021/08/29 09:56:56;;;;;;;2.13;1.75;;;17.50;99.90;;;;;;5049773;28;20252;-77
2021/08/29 10:02:20;;;;;;;1.40;1.20;;;17.50;99.90;;;;;;5084341;27;20593;-75
2021/08/29 10:04:47;;;;;;;1.60;1.25;;;17.60;99.90;;;;;;5059873;28;20203;-76
2021/08/29 10:07:16;;;;;;;1.52;1.40;;;17.50;99.90;;;;;;5059202;28;20195;-76
2021/08/29 10:09:43;;;;;;;1.55;1.10;;;17.60;99.90;;;;;;5065284;28;20560;-76
2021/08/29 10:12:10;;;;;;;1.48;1.23;;;17.60;99.90;;;;;;5061648;28;20202;-76
2021/08/29 10:14:38;;;;;;;1.85;1.45;;;17.60;99.90;;;;;;5068763;28;20199;-75
2021/08/29 10:17:08;;;;;;;1.40;1.02;;;17.60;99.90;;;;;;5051421;28;20241;-74
2021/08/29 10:19:39;;;;;;;1.90;1.60;;;17.60;99.90;;;;;;5067678;28;20761;-72
2021/08/29 10:22:06;;;;;;;2.30;1.95;;;17.60;99.90;;;;;;5069013;28;20725;-75
2021/08/29 10:24:34;;;;;;;1.30;1.17;;;17.70;99.90;;;;;;5056523;28;20195;-74
2021/08/29 10:27:05;;;;;;;1.95;1.30;;;17.70;99.90;;;;;;5061587;28;20203;-76
2021/08/29 10:29:40;;;;;;;1.45;1.30;;;17.70;99.90;;;;;;5054469;28;20258;-76
2021/08/29 10:32:19;;;;;;;1.30;1.20;;;17.70;99.90;;;;;;5057746;28;20205;-76
2021/08/29 10:34:47;;;;;;;3.05;1.35;;;17.70;99.90;;;;;;5050656;28;20241;-75
2021/08/29 10:37:15;;;;;;;1.90;1.60;;;17.70;99.90;;;;;;5067830;28;20187;-75
2021/08/29 10:39:41;;;;;;;1.30;1.20;;;17.80;99.90;;;;;;5057888;28;20192;-75
2021/08/29 10:42:10;;;;;;;1.50;1.38;;;17.70;99.90;;;;;;5066556;28;20222;-78
2021/08/29 10:44:37;;;;;;;1.90;1.73;;;17.80;99.90;;;;;;5067001;28;20187;-76
2021/08/29 10:47:05;;;;;;;1.40;1.30;;;17.80;99.90;;;;;;5050958;28;20250;-76
2021/08/29 10:49:33;;;;;;;3.10;1.67;;;17.70;99.90;;;;;;5048413;28;20635;-76
2021/08/29 10:52:01;;;;;;;1.55;1.10;;;17.80;99.90;;;;;;5054069;28;20192;-75
2021/08/29 10:54:30;;;;;;;1.20;1.10;;;17.80;99.90;;;;;;5064762;28;20564;-75
2021/08/29 10:56:56;;;;;;;1.45;1.17;;;17.80;99.90;;;;;;5065059;28;20622;-75
2021/08/29 10:59:28;;;;;;;1.63;1.27;;;17.90;99.90;;;;;;5067533;28;20249;-75
2021/08/29 11:02:10;;;;;;;1.40;1.30;;;17.60;99.90;;;;;;5068363;28;20254;-75
2021/08/29 11:04:44;;;;;;;3.10;1.27;;;17.70;99.90;;;;;;5054433;28;20195;-77
2021/08/29 11:07:12;;;;;;;2.58;1.45;;;17.90;99.90;;;;;;5063765;28;20280;-76
2021/08/29 11:09:46;;;;;;;1.10;1.00;;;17.70;99.90;;;;;;5064446;28;20199;-75
2021/08/29 11:12:31;;;;;;;1.70;1.17;;;17.70;99.90;;;;;;5062305;28;20321;-75
2021/08/29 11:14:59;;;;;;;2.38;1.33;;;17.80;99.90;;;;;;5052682;28;20618;-76
2021/08/29 11:17:28;;;;;;;1.50;1.13;;;17.80;99.90;;;;;;5042599;28;20196;-76
2021/08/29 11:19:56;;;;;;;2.00;1.35;;;17.80;99.90;;;;;;5041811;28;20212;-76
2021/08/29 11:22:26;;;;;;;1.40;1.10;;;17.80;99.90;;;;;;5050581;28;20297;-75
2021/08/29 11:24:57;;;;;;;1.80;1.70;;;17.80;99.90;;;;;;5038643;28;20195;-76
2021/08/29 11:27:44;;;;;;;1.30;1.20;;;17.90;99.90;;;;;;5046606;28;20676;-76
2021/08/29 11:30:14;;;;;;;1.45;1.27;;;17.80;99.90;;;;;;5049377;28;20202;-76
2021/08/29 11:32:45;;;;;;;1.73;1.25;;;17.80;99.90;;;;;;5049258;28;20287;-76
2021/08/29 11:35:14;;;;;;;1.30;1.10;;;17.90;99.90;;;;;;5051399;28;20207;-76
2021/08/29 11:37:43;;;;;;;1.33;1.10;;;17.90;99.90;;;;;;5050502;28;20203;-77
2021/08/29 11:40:13;;;;;;;1.83;1.25;;;17.80;99.90;;;;;;5046840;28;20199;-77
2021/08/29 11:42:40;;;;;;;1.30;1.15;;;17.80;99.90;;;;;;5053191;28;20212;-76
2021/08/29 11:45:12;;;;;;;1.40;1.20;;;17.90;99.90;;;;;;5054023;28;20592;-75
2021/08/29 11:47:42;;;;;;;1.40;1.30;;;17.80;99.90;;;;;;5044431;28;20232;-75
2021/08/29 11:50:12;;;;;;;1.10;0.98;;;18.20;99.90;;;;;;5051527;28;20192;-76
2021/08/29 11:52:39;;;;;;;1.20;1.02;;;17.90;99.90;;;;;;5044705;28;20185;-75
2021/08/29 11:55:10;;;;;;;1.30;1.20;;;18.00;99.90;;;;;;5045549;28;20631;-77
2021/08/29 11:57:48;;;;;;;1.50;1.30;;;17.90;99.90;;;;;;5053135;28;20200;-76
2021/08/29 12:00:16;;;;;;;1.50;1.30;;;17.70;99.90;;;;;;5041359;28;20203;-76
2021/08/29 12:02:44;;;;;;;1.75;1.50;;;17.80;99.90;;;;;;5048715;28;20227;-76
2021/08/29 12:05:13;;;;;;;1.23;1.13;;;17.90;99.90;;;;;;5051889;28;20725;-75
2021/08/29 12:07:48;;;;;;;1.40;1.05;;;17.90;99.90;;;;;;5043945;28;20203;-75
2021/08/29 12:10:17;;;;;;;1.48;1.10;;;17.80;99.90;;;;;;5038267;28;20244;-75
2021/08/29 12:12:46;;;;;;;1.20;1.10;;;17.80;99.90;;;;;;5050496;28;20286;-75
2021/08/29 12:15:15;;;;;;;1.25;1.15;;;17.90;99.90;;;;;;5038847;28;20279;-75
2021/08/29 12:17:44;;;;;;;2.10;1.58;;;17.90;99.90;;;;;;5053101;28;20278;-75
2021/08/29 12:20:12;;;;;;;1.30;1.10;;;17.90;99.90;;;;;;5038135;28;20220;-75
2021/08/29 12:22:39;;;;;;;1.15;1.00;;;17.90;99.90;;;;;;5044694;28;20568;-75
2021/08/29 12:25:07;;;;;;;1.38;1.25;;;17.90;99.90;;;;;;5035953;28;20207;-75
2021/08/29 12:27:35;;;;;;;1.58;1.33;;;17.90;99.90;;;;;;5042172;28;20192;-75
2021/08/29 12:30:05;;;;;;;1.75;1.00;;;17.90;99.90;;;;;;5033092;28;20243;-75
2021/08/29 12:32:33;;;;;;;1.30;1.20;;;17.90;99.90;;;;;;5031637;28;20660;-75
2021/08/29 12:35:02;;;;;;;1.20;1.00;;;17.90;99.90;;;;;;5041320;28;20199;-76
2021/08/29 12:37:31;;;;;;;1.17;0.98;;;17.90;99.90;;;;;;5052439;28;20191;-76
2021/08/29 12:40:00;;;;;;;1.50;1.40;;;17.90;99.90;;;;;;5036313;28;20266;-75
2021/08/29 12:42:29;;;;;;;1.25;1.10;;;17.90;99.90;;;;;;5033545;28;20216;-75
2021/08/29 12:44:58;;;;;;;1.60;1.50;;;17.90;99.90;;;;;;5033025;28;20199;-75
2021/08/29 12:47:26;;;;;;;2.13;1.27;;;18.00;99.90;;;;;;5048321;28;20211;-75
2021/08/29 12:49:54;;;;;;;2.17;1.27;;;17.90;99.90;;;;;;5045276;28;20223;-77
2021/08/29 12:52:24;;;;;;;1.67;1.50;;;17.90;99.90;;;;;;5046151;28;20681;-75
2021/08/29 12:54:51;;;;;;;2.10;1.30;;;17.90;99.90;;;;;;5046463;28;20202;-76
2021/08/29 12:57:22;;;;;;;1.27;1.10;;;17.90;99.90;;;;;;5044139;28;20196;-76